Archer, FL

1:18 AM EDT on March 27, 2015 (GMT -0400)
Broadmoor | | Change Station
CLOSE
Current Station
Personal Weather Station
Location: Gainesville, FL
Elevation: 131 ft
Nearby Weather Stations

Elev 131 ft 29.66 °N, 82.46 °W | Updated 4 seconds ago

Rain
Rain
64.6 °F
Feels Like 64.6 °F
N
0.0
Wind Variable Wind from West
Gusts 0.0 mph

Today
High -- | Low -- °F
--% Chance of Precip.
Yesterday
High -- | Low -- °F
Precip. -- in
7:25 AM 7:45 PM
Waxing Crescent, 49% visible
Pressure 29.88 in
Visibility 10.0 miles
Clouds Mostly Cloudy 12000 ft
Dew Point 64 °F
Humidity 99%
Rainfall 0.07 in
Snow Depth Not available.
UV 0 out of 12
Pollen 10.40 out of 12
Air Quality Not available.
Flu Activity Not available.
METAR KGNV 270453Z AUTO 26007KT 10SM -RA BKN120 19/18 A2988 RMK AO2 SLP116 P0000 T01890178 402720139

More Conditions Fewer Conditions

Pressure 29.88 in
Visibility 10.0 miles
Clouds Mostly Cloudy 12000 ft
Dew Point 64 °F
Humidity 99%
Rainfall 0.07 in
Snow Depth Not available.
UV 0 out of 12
Pollen 10.40 out of 12
Air Quality Not available.
Flu Activity Not available.
METAR KGNV 270453Z AUTO 26007KT 10SM -RA BKN120 19/18 A2988 RMK AO2 SLP116 P0000 T01890178 402720139

More Conditions Fewer Conditions

10-Day Weather Forecast

Almanac

Astronomy

Mar. 27, 2015 Rise Set
Actual Time
Civil Twilight
Nautical Twilight
Astronomical Twilight
Moon
Length of Visible Light
Length of Day
Tomorrow will be .
, % of the Moon is Illuminated

Today's Extremes

State Highs State Lows

Community

WunderPhotos

Upload Photos

1,808,697 photos uploaded!

WunderBlogs® & News

Nearby

Air Quality

  Air Quality AQ Index Pollutant
Not available.

Snow Depth

Station Depth Elevation

Earthquake Activity

City Distance Mag. Time & Date
Minimum magnitude displayed is 2.5.

Coastal Water Temperatures

Place Temperature

Stations

Nearby Weather Stations

Station Location Temp. Windchill Dew Point Humidity Wind Precip. Elev Updated Type